sensor_id;sensor_type;location;lat;lon;timestamp;pressure;altitude;pressure_sealevel;temperature;humidity
40650;BME280;26342;42.826;23.992;2024-01-30T00:01:07;97404.31;;;-0.17;100.00
40650;BME280;26342;42.826;23.992;2024-01-30T00:03:33;97395.22;;;-0.23;100.00
40650;BME280;26342;42.826;23.992;2024-01-30T00:05:58;97399.66;;;-0.23;100.00
40650;BME280;26342;42.826;23.992;2024-01-30T00:08:23;97404.63;;;-0.30;100.00
40650;BME280;26342;42.826;23.992;2024-01-30T00:10:52;97399.63;;;-0.33;100.00
40650;BME280;26342;42.826;23.992;2024-01-30T00:13:17;97397.84;;;-0.33;100.00
40650;BME280;26342;42.826;23.992;2024-01-30T00:15:44;97396.91;;;-0.32;100.00
40650;BME280;26342;42.826;23.992;2024-01-30T00:18:09;97402.00;;;-0.30;100.00
40650;BME280;26342;42.826;23.992;2024-01-30T00:20:35;97403.94;;;-0.22;100.00
40650;BME280;26342;42.826;23.992;2024-01-30T00:23:00;97396.16;;;-0.24;100.00
40650;BME280;26342;42.826;23.992;2024-01-30T00:25:26;97400.19;;;-0.20;100.00
40650;BME280;26342;42.826;23.992;2024-01-30T00:27:52;97390.09;;;-0.24;100.00
40650;BME280;26342;42.826;23.992;2024-01-30T00:30:17;97385.81;;;-0.25;100.00
40650;BME280;26342;42.826;23.992;2024-01-30T00:32:43;97396.44;;;-0.17;100.00
40650;BME280;26342;42.826;23.992;2024-01-30T00:35:08;97390.94;;;-0.24;100.00
40650;BME280;26342;42.826;23.992;2024-01-30T00:37:35;97387.22;;;-0.21;100.00
40650;BME280;26342;42.826;23.992;2024-01-30T00:40:01;97388.19;;;-0.22;100.00
40650;BME280;26342;42.826;23.992;2024-01-30T00:42:26;97389.28;;;-0.15;100.00
40650;BME280;26342;42.826;23.992;2024-01-30T00:44:52;97391.75;;;-0.14;100.00
40650;BME280;26342;42.826;23.992;2024-01-30T00:47:17;97377.69;;;-0.22;100.00
40650;BME280;26342;42.826;23.992;2024-01-30T00:49:42;97391.22;;;-0.08;100.00
40650;BME280;26342;42.826;23.992;2024-01-30T00:52:08;97387.72;;;-0.08;100.00
40650;BME280;26342;42.826;23.992;2024-01-30T00:54:33;97387.03;;;-0.01;100.00
40650;BME280;26342;42.826;23.992;2024-01-30T00:56:59;97385.09;;;0.02;100.00
40650;BME280;26342;42.826;23.992;2024-01-30T00:59:24;97382.75;;;0.08;100.00
40650;BME280;26342;42.826;23.992;2024-01-30T01:01:50;97384.25;;;0.11;100.00
40650;BME280;26342;42.826;23.992;2024-01-30T01:04:16;97378.31;;;0.09;100.00
40650;BME280;26342;42.826;23.992;2024-01-30T01:06:42;97364.41;;;-0.11;100.00
40650;BME280;26342;42.826;23.992;2024-01-30T01:09:10;97371.75;;;-0.15;100.00
40650;BME280;26342;42.826;23.992;2024-01-30T01:11:36;97375.91;;;-0.22;100.00
40650;BME280;26342;42.826;23.992;2024-01-30T01:14:03;97377.41;;;-0.19;100.00
40650;BME280;26342;42.826;23.992;2024-01-30T01:16:28;97383.75;;;-0.22;100.00
40650;BME280;26342;42.826;23.992;2024-01-30T01:18:54;97363.50;;;-0.39;100.00
40650;BME280;26342;42.826;23.992;2024-01-30T01:21:19;97375.34;;;-0.35;100.00
40650;BME280;26342;42.826;23.992;2024-01-30T01:23:45;97371.75;;;-0.34;100.00
40650;BME280;26342;42.826;23.992;2024-01-30T01:26:10;97375.91;;;-0.32;100.00
40650;BME280;26342;42.826;23.992;2024-01-30T01:28:36;97377.94;;;-0.25;100.00
40650;BME280;26342;42.826;23.992;2024-01-30T01:31:01;97376.44;;;-0.28;100.00
40650;BME280;26342;42.826;23.992;2024-01-30T01:33:31;97371.06;;;-0.36;100.00
40650;BME280;26342;42.826;23.992;2024-01-30T01:35:58;97383.06;;;-0.34;100.00
40650;BME280;26342;42.826;23.992;2024-01-30T01:38:23;97371.38;;;-0.39;100.00
40650;BME280;26342;42.826;23.992;2024-01-30T01:40:49;97378.25;;;-0.38;100.00
40650;BME280;26342;42.826;23.992;2024-01-30T01:43:14;97371.22;;;-0.38;100.00
40650;BME280;26342;42.826;23.992;2024-01-30T01:45:39;97343.34;;;-0.58;100.00
40650;BME280;26342;42.826;23.992;2024-01-30T01:48:05;97371.91;;;-0.45;100.00
40650;BME280;26342;42.826;23.992;2024-01-30T01:50:31;97374.25;;;-0.52;100.00
40650;BME280;26342;42.826;23.992;2024-01-30T01:52:58;97370.25;;;-0.46;100.00
40650;BME280;26342;42.826;23.992;2024-01-30T01:55:24;97375.22;;;-0.53;100.00
40650;BME280;26342;42.826;23.992;2024-01-30T01:57:52;97376.06;;;-0.52;100.00
40650;BME280;26342;42.826;23.992;2024-01-30T02:00:18;97375.38;;;-0.54;100.00
40650;BME280;26342;42.826;23.992;2024-01-30T02:02:45;97376.88;;;-0.52;100.00
40650;BME280;26342;42.826;23.992;2024-01-30T02:05:11;97376.19;;;-0.54;100.00
40650;BME280;26342;42.826;23.992;2024-01-30T02:07:37;97369.41;;;-0.57;100.00
40650;BME280;26342;42.826;23.992;2024-01-30T02:10:03;97371.06;;;-0.56;100.00
40650;BME280;26342;42.826;23.992;2024-01-30T02:12:29;97371.78;;;-0.53;100.00
40650;BME280;26342;42.826;23.992;2024-01-30T02:14:55;97373.84;;;-0.47;100.00
40650;BME280;26342;42.826;23.992;2024-01-30T02:17:20;97371.34;;;-0.49;100.00
40650;BME280;26342;42.826;23.992;2024-01-30T02:19:46;97380.75;;;-0.46;100.00
40650;BME280;26342;42.826;23.992;2024-01-30T02:22:12;97377.41;;;-0.58;100.00
40650;BME280;26342;42.826;23.992;2024-01-30T02:24:38;97368.06;;;-0.61;100.00
40650;BME280;26342;42.826;23.992;2024-01-30T02:27:03;97378.69;;;-0.62;100.00
40650;BME280;26342;42.826;23.992;2024-01-30T02:29:29;97388.59;;;-0.56;100.00
40650;BME280;26342;42.826;23.992;2024-01-30T02:31:54;97387.78;;;-0.57;100.00
40650;BME280;26342;42.826;23.992;2024-01-30T02:34:20;97383.09;;;-0.53;100.00
40650;BME280;26342;42.826;23.992;2024-01-30T02:36:46;97383.09;;;-0.53;100.00
40650;BME280;26342;42.826;23.992;2024-01-30T02:39:11;97381.00;;;-0.49;100.00
40650;BME280;26342;42.826;23.992;2024-01-30T02:41:37;97375.91;;;-0.41;100.00
40650;BME280;26342;42.826;23.992;2024-01-30T02:44:03;97386.38;;;-0.41;100.00
40650;BME280;26342;42.826;23.992;2024-01-30T02:46:29;97376.47;;;-0.38;100.00
40650;BME280;26342;42.826;23.992;2024-01-30T02:48:54;97379.09;;;-0.38;100.00
40650;BME280;26342;42.826;23.992;2024-01-30T02:51:20;97380.72;;;-0.27;100.00
40650;BME280;26342;42.826;23.992;2024-01-30T02:53:45;97377.69;;;-0.32;100.00
40650;BME280;26342;42.826;23.992;2024-01-30T02:56:11;97368.44;;;-0.26;100.00
40650;BME280;26342;42.826;23.992;2024-01-30T02:58:37;97370.78;;;-0.23;100.00
40650;BME280;26342;42.826;23.992;2024-01-30T03:01:02;97369.09;;;-0.24;100.00
40650;BME280;26342;42.826;23.992;2024-01-30T03:03:28;97379.88;;;-0.18;100.00
40650;BME280;26342;42.826;23.992;2024-01-30T03:05:53;97379.06;;;-0.18;100.00
40650;BME280;26342;42.826;23.992;2024-01-30T03:08:19;97372.44;;;-0.22;100.00
40650;BME280;26342;42.826;23.992;2024-01-30T03:10:44;97379.19;;;-0.20;100.00
40650;BME280;26342;42.826;23.992;2024-01-30T03:13:10;97383.06;;;-0.24;100.00
40650;BME280;26342;42.826;23.992;2024-01-30T03:15:35;97390.94;;;-0.24;100.00
40650;BME280;26342;42.826;23.992;2024-01-30T03:18:02;97385.00;;;-0.36;100.00
40650;BME280;26342;42.826;23.992;2024-01-30T03:20:29;97377.31;;;-0.47;100.00
40650;BME280;26342;42.826;23.992;2024-01-30T03:22:55;97380.31;;;-0.42;100.00
40650;BME280;26342;42.826;23.992;2024-01-30T03:25:20;97373.41;;;-0.43;100.00
40650;BME280;26342;42.826;23.992;2024-01-30T03:27:46;97369.69;;;-0.50;100.00
40650;BME280;26342;42.826;23.992;2024-01-30T03:30:11;97377.31;;;-0.47;100.00
40650;BME280;26342;42.826;23.992;2024-01-30T03:32:37;97379.22;;;-0.49;100.00
40650;BME280;26342;42.826;23.992;2024-01-30T03:35:02;97368.59;;;-0.57;100.00
40650;BME280;26342;42.826;23.992;2024-01-30T03:37:28;97370.66;;;-0.61;100.00
40650;BME280;26342;42.826;23.992;2024-01-30T03:39:53;97357.69;;;-0.72;100.00
40650;BME280;26342;42.826;23.992;2024-01-30T03:42:19;97367.38;;;-0.63;100.00
40650;BME280;26342;42.826;23.992;2024-01-30T03:44:44;97365.81;;;-0.65;100.00
40650;BME280;26342;42.826;23.992;2024-01-30T03:47:10;97357.44;;;-0.69;100.00
40650;BME280;26342;42.826;23.992;2024-01-30T03:49:35;97368.88;;;-0.70;100.00
40650;BME280;26342;42.826;23.992;2024-01-30T03:52:01;97360.44;;;-0.73;100.00
40650;BME280;26342;42.826;23.992;2024-01-30T03:54:26;97369.28;;;-0.74;100.00
40650;BME280;26342;42.826;23.992;2024-01-30T03:56:52;97346.09;;;-0.89;100.00
40650;BME280;26342;42.826;23.992;2024-01-30T03:59:17;97362.78;;;-0.80;100.00
40650;BME280;26342;42.826;23.992;2024-01-30T04:01:47;97369.28;;;-0.74;100.00
40650;BME280;26342;42.826;23.992;2024-01-30T04:04:13;97367.22;;;-0.71;100.00
40650;BME280;26342;42.826;23.992;2024-01-30T04:06:38;97370.38;;;-0.77;100.00
40650;BME280;26342;42.826;23.992;2024-01-30T04:09:03;97357.28;;;-0.77;100.00
40650;BME280;26342;42.826;23.992;2024-01-30T04:11:29;97353.56;;;-0.84;100.00
40650;BME280;26342;42.826;23.992;2024-01-30T04:13:55;97349.41;;;-0.87;100.00
40650;BME280;26342;42.826;23.992;2024-01-30T04:16:21;97369.00;;;-0.81;100.00
40650;BME280;26342;42.826;23.992;2024-01-30T04:18:47;97380.59;;;-0.74;100.00
40650;BME280;26342;42.826;23.992;2024-01-30T04:21:13;97366.66;;;-0.74;100.00
40650;BME280;26342;42.826;23.992;2024-01-30T04:23:40;97377.72;;;-0.71;100.00
40650;BME280;26342;42.826;23.992;2024-01-30T04:26:06;97375.63;;;-0.67;100.00
40650;BME280;26342;42.826;23.992;2024-01-30T04:28:32;97382.38;;;-0.65;100.00
40650;BME280;26342;42.826;23.992;2024-01-30T04:30:57;97376.31;;;-0.75;100.00
40650;BME280;26342;42.826;23.992;2024-01-30T04:33:23;97382.00;;;-0.70;100.00
40650;BME280;26342;42.826;23.992;2024-01-30T04:35:48;97376.16;;;-0.64;100.00
40650;BME280;26342;42.826;23.992;2024-01-30T04:38:14;97378.53;;;-0.61;100.00
40650;BME280;26342;42.826;23.992;2024-01-30T04:40:40;97379.50;;;-0.52;100.00
40650;BME280;26342;42.826;23.992;2024-01-30T04:43:06;97388.72;;;-0.48;100.00
40650;BME280;26342;42.826;23.992;2024-01-30T04:45:31;97380.75;;;-0.46;100.00
40650;BME280;26342;42.826;23.992;2024-01-30T04:47:57;97383.38;;;-0.46;100.00
40650;BME280;26342;42.826;23.992;2024-01-30T04:50:23;97382.53;;;-0.57;100.00
40650;BME280;26342;42.826;23.992;2024-01-30T04:52:48;97390.38;;;-0.57;100.00
40650;BME280;26342;42.826;23.992;2024-01-30T04:55:14;97382.81;;;-0.60;100.00
40650;BME280;26342;42.826;23.992;2024-01-30T04:57:40;97396.34;;;-0.54;100.00
40650;BME280;26342;42.826;23.992;2024-01-30T05:00:06;97387.91;;;-0.58;100.00
40650;BME280;26342;42.826;23.992;2024-01-30T05:02:32;97394.41;;;-0.43;100.00
40650;BME280;26342;42.826;23.992;2024-01-30T05:04:57;97389.31;;;-0.44;100.00
40650;BME280;26342;42.826;23.992;2024-01-30T05:07:24;97390.13;;;-0.34;100.00
40650;BME280;26342;42.826;23.992;2024-01-30T05:09:50;97396.47;;;-0.27;100.00
40650;BME280;26342;42.826;23.992;2024-01-30T05:12:16;97391.22;;;-0.27;100.00
40650;BME280;26342;42.826;23.992;2024-01-30T05:14:41;97389.56;;;-0.38;100.00
40650;BME280;26342;42.826;23.992;2024-01-30T05:17:07;97391.94;;;-0.44;100.00
40650;BME280;26342;42.826;23.992;2024-01-30T05:19:34;97394.84;;;-0.47;100.00
40650;BME280;26342;42.826;23.992;2024-01-30T05:22:00;97406.84;;;-0.54;100.00
40650;BME280;26342;42.826;23.992;2024-01-30T05:24:25;97405.72;;;-0.62;100.00
40650;BME280;26342;42.826;23.992;2024-01-30T05:26:50;97408.34;;;-0.62;100.00
40650;BME280;26342;42.826;23.992;2024-01-30T05:29:16;97411.66;;;-0.60;100.00
40650;BME280;26342;42.826;23.992;2024-01-30T05:31:42;97404.06;;;-0.63;100.00
40650;BME280;26342;42.826;23.992;2024-01-30T05:34:07;97401.31;;;-0.71;100.00
40650;BME280;26342;42.826;23.992;2024-01-30T05:36:34;97414.97;;;-0.67;100.00
40650;BME280;26342;42.826;23.992;2024-01-30T05:38:59;97407.09;;;-0.67;100.00
40650;BME280;26342;42.826;23.992;2024-01-30T05:41:25;97406.41;;;-0.69;100.00
40650;BME280;26342;42.826;23.992;2024-01-30T05:43:53;97415.66;;;-0.65;100.00
40650;BME280;26342;42.826;23.992;2024-01-30T05:46:19;97409.03;;;-0.69;100.00
40650;BME280;26342;42.826;23.992;2024-01-30T05:48:44;97403.06;;;-0.71;100.00
40650;BME280;26342;42.826;23.992;2024-01-30T05:51:09;97406.94;;;-0.66;100.00
40650;BME280;26342;42.826;23.992;2024-01-30T05:53:35;97410.81;;;-0.70;100.00
40650;BME280;26342;42.826;23.992;2024-01-30T05:56:01;97407.25;;;-0.69;100.00
40650;BME280;26342;42.826;23.992;2024-01-30T05:58:27;97397.72;;;-0.70;100.00
40650;BME280;26342;42.826;23.992;2024-01-30T06:00:52;97403.66;;;-0.68;100.00
40650;BME280;26342;42.826;23.992;2024-01-30T06:03:18;97393.84;;;-0.75;100.00
40650;BME280;26342;42.826;23.992;2024-01-30T06:05:43;97402.38;;;-0.64;100.00
40650;BME280;26342;42.826;23.992;2024-01-30T06:08:09;97407.63;;;-0.64;100.00
40650;BME280;26342;42.826;23.992;2024-01-30T06:10:34;97400.44;;;-0.71;100.00
40650;BME280;26342;42.826;23.992;2024-01-30T06:13:00;97407.91;;;-0.57;100.00
40650;BME280;26342;42.826;23.992;2024-01-30T06:15:25;97414.28;;;-0.50;100.00
40650;BME280;26342;42.826;23.992;2024-01-30T06:17:51;97420.34;;;-0.49;100.00
40650;BME280;26342;42.826;23.992;2024-01-30T06:20:16;97411.38;;;-0.57;100.00
40650;BME280;26342;42.826;23.992;2024-01-30T06:22:43;97409.84;;;-0.49;100.00
40650;BME280;26342;42.826;23.992;2024-01-30T06:25:08;97415.66;;;-0.46;100.00
40650;BME280;26342;42.826;23.992;2024-01-30T06:27:34;97415.66;;;-0.56;100.00
40650;BME280;26342;42.826;23.992;2024-01-30T06:29:59;97419.38;;;-0.48;100.00
40650;BME280;26342;42.826;23.992;2024-01-30T06:32:24;97410.97;;;-0.52;100.00
40650;BME280;26342;42.826;23.992;2024-01-30T06:34:50;97418.56;;;-0.49;100.00
40650;BME280;26342;42.826;23.992;2024-01-30T06:37:15;97421.88;;;-0.47;100.00
40650;BME280;26342;42.826;23.992;2024-01-30T06:39:41;97416.50;;;-0.45;100.00
40650;BME280;26342;42.826;23.992;2024-01-30T06:42:06;97418.56;;;-0.49;100.00
40650;BME280;26342;42.826;23.992;2024-01-30T06:44:31;97427.66;;;-0.43;100.00
40650;BME280;26342;42.826;23.992;2024-01-30T06:46:57;97420.91;;;-0.46;100.00
40650;BME280;26342;42.826;23.992;2024-01-30T06:49:23;97415.53;;;-0.44;100.00
40650;BME280;26342;42.826;23.992;2024-01-30T06:51:48;97421.75;;;-0.45;100.00
40650;BME280;26342;42.826;23.992;2024-01-30T06:54:14;97427.53;;;-0.42;100.00
40650;BME280;26342;42.826;23.992;2024-01-30T06:56:39;97424.50;;;-0.37;100.00
40650;BME280;26342;42.826;23.992;2024-01-30T06:59:05;97418.97;;;-0.44;100.00
40650;BME280;26342;42.826;23.992;2024-01-30T07:01:30;97428.09;;;-0.38;100.00
40650;BME280;26342;42.826;23.992;2024-01-30T07:03:56;97431.94;;;-0.33;100.00
40650;BME280;26342;42.826;23.992;2024-01-30T07:06:22;97431.69;;;-0.30;100.00
40650;BME280;26342;42.826;23.992;2024-01-30T07:08:49;97430.16;;;-0.32;100.00
40650;BME280;26342;42.826;23.992;2024-01-30T07:11:21;97430.72;;;-0.29;100.00
40650;BME280;26342;42.826;23.992;2024-01-30T07:13:47;97427.00;;;-0.45;100.00
40650;BME280;26342;42.826;23.992;2024-01-30T07:16:14;97437.19;;;-0.42;100.00
40650;BME280;26342;42.826;23.992;2024-01-30T07:18:40;97424.50;;;-0.37;100.00
40650;BME280;26342;42.826;23.992;2024-01-30T07:21:05;97411.66;;;-0.40;100.00
40650;BME280;26342;42.826;23.992;2024-01-30T07:23:31;97434.44;;;-0.21;100.00
40650;BME280;26342;42.826;23.992;2024-01-30T07:25:59;97431.66;;;-0.20;100.00
40650;BME280;26342;42.826;23.992;2024-01-30T07:28:24;97428.50;;;-0.14;100.00
40650;BME280;26342;42.826;23.992;2024-01-30T07:30:50;97440.78;;;-0.14;100.00
40650;BME280;26342;42.826;23.992;2024-01-30T07:33:15;97441.06;;;-0.08;100.00
40650;BME280;26342;42.826;23.992;2024-01-30T07:35:41;97431.81;;;-0.12;100.00
40650;BME280;26342;42.826;23.992;2024-01-30T07:38:06;97429.59;;;-0.16;100.00
40650;BME280;26342;42.826;23.992;2024-01-30T07:40:32;97435.41;;;-0.13;100.00
40650;BME280;26342;42.826;23.992;2024-01-30T07:42:58;97430.28;;;-0.14;100.00
40650;BME280;26342;42.826;23.992;2024-01-30T07:45:24;97429.47;;;-0.05;100.00
40650;BME280;26342;42.826;23.992;2024-01-30T07:47:51;97423.88;;;0.08;100.00
40650;BME280;26342;42.826;23.992;2024-01-30T07:50:17;97431.91;;;0.06;100.00
40650;BME280;26342;42.826;23.992;2024-01-30T07:52:43;97420.84;;;0.12;100.00
40650;BME280;26342;42.826;23.992;2024-01-30T07:55:09;97429.97;;;0.18;100.00
40650;BME280;26342;42.826;23.992;2024-01-30T07:57:34;97433.94;;;0.22;100.00
40650;BME280;26342;42.826;23.992;2024-01-30T08:00:01;97424.44;;;0.21;100.00
40650;BME280;26342;42.826;23.992;2024-01-30T08:02:28;97422.25;;;0.16;100.00
40650;BME280;26342;42.826;23.992;2024-01-30T08:04:53;97422.34;;;0.15;100.00
40650;BME280;26342;42.826;23.992;2024-01-30T08:07:19;97424.31;;;0.13;100.00
40650;BME280;26342;42.826;23.992;2024-01-30T08:09:44;97420.44;;;0.07;100.00
40650;BME280;26342;42.826;23.992;2024-01-30T08:12:10;97421.00;;;0.11;100.00
40650;BME280;26342;42.826;23.992;2024-01-30T08:14:36;97422.09;;;0.18;100.00
40650;BME280;26342;42.826;23.992;2024-01-30T08:17:01;97436.06;;;0.18;100.00
40650;BME280;26342;42.826;23.992;2024-01-30T08:19:27;97431.22;;;0.14;100.00
40650;BME280;26342;42.826;23.992;2024-01-30T08:21:52;97434.50;;;0.16;100.00
40650;BME280;26342;42.826;23.992;2024-01-30T08:24:20;97430.94;;;0.07;100.00
40650;BME280;26342;42.826;23.992;2024-01-30T08:26:46;97420.44;;;0.07;100.00
40650;BME280;26342;42.826;23.992;2024-01-30T08:29:11;97416.47;;;0.03;100.00
40650;BME280;26342;42.826;23.992;2024-01-30T08:31:36;97397.53;;;-0.10;100.00
40650;BME280;26342;42.826;23.992;2024-01-30T08:34:02;97423.47;;;0.12;100.00
40650;BME280;26342;42.826;23.992;2024-01-30T08:36:28;97415.59;;;0.12;100.00
40650;BME280;26342;42.826;23.992;2024-01-30T08:38:53;97422.34;;;0.15;100.00
40650;BME280;26342;42.826;23.992;2024-01-30T08:41:19;97415.88;;;0.19;100.00
40650;BME280;26342;42.826;23.992;2024-01-30T08:43:44;97412.84;;;0.14;100.00
40650;BME280;26342;42.826;23.992;2024-01-30T08:46:10;97428.28;;;0.26;100.00
40650;BME280;26342;42.826;23.992;2024-01-30T08:48:36;97423.88;;;0.27;100.00
40650;BME280;26342;42.826;23.992;2024-01-30T08:51:01;97423.41;;;0.32;100.00
40650;BME280;26342;42.826;23.992;2024-01-30T08:53:28;97427.44;;;0.36;100.00
40650;BME280;26342;42.826;23.992;2024-01-30T08:55:53;97422.34;;;0.34;100.00
40650;BME280;26342;42.826;23.992;2024-01-30T08:58:19;97427.28;;;0.37;100.00
40650;BME280;26342;42.826;23.992;2024-01-30T09:00:44;97428.94;;;0.38;100.00
40650;BME280;26342;42.826;23.992;2024-01-30T09:03:10;97419.25;;;0.39;100.00
40650;BME280;26342;42.826;23.992;2024-01-30T09:05:35;97425.09;;;0.33;100.00
40650;BME280;26342;42.826;23.992;2024-01-30T09:08:01;97430.91;;;0.26;100.00
40650;BME280;26342;42.826;23.992;2024-01-30T09:10:26;97416.41;;;0.22;100.00
40650;BME280;26342;42.826;23.992;2024-01-30T09:12:51;97423.56;;;0.30;100.00
40650;BME280;26342;42.826;23.992;2024-01-30T09:15:19;97422.47;;;0.33;100.00
40650;BME280;26342;42.826;23.992;2024-01-30T09:17:44;97407.28;;;0.26;100.00
40650;BME280;26342;42.826;23.992;2024-01-30T09:20:10;97414.03;;;0.29;100.00
40650;BME280;26342;42.826;23.992;2024-01-30T09:22:39;97409.91;;;0.26;100.00
40650;BME280;26342;42.826;23.992;2024-01-30T09:25:04;97414.16;;;0.37;100.00
40650;BME280;26342;42.826;23.992;2024-01-30T09:30:32;97403.13;;;0.34;100.00
40650;BME280;26342;42.826;23.992;2024-01-30T09:32:57;97415.38;;;0.43;100.00
40650;BME280;26342;42.826;23.992;2024-01-30T09:35:23;97407.50;;;0.43;100.00
40650;BME280;26342;42.826;23.992;2024-01-30T09:37:48;97416.78;;;0.37;100.00
40650;BME280;26342;42.826;23.992;2024-01-30T09:40:14;97420.78;;;0.41;100.00
40650;BME280;26342;42.826;23.992;2024-01-30T09:42:46;97409.88;;;0.36;100.00
40650;BME280;26342;42.826;23.992;2024-01-30T09:45:14;97414.56;;;0.42;100.00
40650;BME280;26342;42.826;23.992;2024-01-30T09:47:42;97415.91;;;0.46;100.00
40650;BME280;26342;42.826;23.992;2024-01-30T09:50:09;97418.69;;;0.45;100.00
40650;BME280;26342;42.826;23.992;2024-01-30T09:52:35;97416.47;;;0.50;100.00
40650;BME280;26342;42.826;23.992;2024-01-30T09:55:01;97407.22;;;0.46;100.00
40650;BME280;26342;42.826;23.992;2024-01-30T09:57:27;97400.31;;;0.45;100.00
40650;BME280;26342;42.826;23.992;2024-01-30T09:59:53;97398.22;;;0.48;100.00
40650;BME280;26342;42.826;23.992;2024-01-30T10:02:22;97403.88;;;0.53;100.00
40650;BME280;26342;42.826;23.992;2024-01-30T10:04:52;97406.34;;;0.55;100.00
40650;BME280;26342;42.826;23.992;2024-01-30T10:07:18;97405.66;;;0.53;100.00
40650;BME280;26342;42.826;23.992;2024-01-30T10:09:44;97403.19;;;0.51;100.00
40650;BME280;26342;42.826;23.992;2024-01-30T10:12:10;97404.16;;;0.50;100.00
40650;BME280;26342;42.826;23.992;2024-01-30T10:14:39;97395.31;;;0.51;100.00
40650;BME280;26342;42.826;23.992;2024-01-30T10:17:09;97393.41;;;0.44;100.00
40650;BME280;26342;42.826;23.992;2024-01-30T10:19:35;97401.44;;;0.42;100.00
40650;BME280;26342;42.826;23.992;2024-01-30T10:22:01;97411.94;;;0.42;100.00
40650;BME280;26342;42.826;23.992;2024-01-30T10:24:27;97410.13;;;0.43;100.00
40650;BME280;26342;42.826;23.992;2024-01-30T10:26:54;97405.72;;;0.43;100.00
40650;BME280;26342;42.826;23.992;2024-01-30T10:29:20;97408.59;;;0.50;100.00
40650;BME280;26342;42.826;23.992;2024-01-30T10:31:45;97415.06;;;0.55;100.00
40650;BME280;26342;42.826;23.992;2024-01-30T10:34:13;97412.00;;;0.60;100.00
40650;BME280;26342;42.826;23.992;2024-01-30T10:36:42;97411.44;;;0.66;100.00
40650;BME280;26342;42.826;23.992;2024-01-30T10:39:08;97407.94;;;0.75;100.00
40650;BME280;26342;42.826;23.992;2024-01-30T10:41:44;97398.25;;;0.76;100.00
40650;BME280;26342;42.826;23.992;2024-01-30T10:44:10;97413.59;;;0.80;100.00
40650;BME280;26342;42.826;23.992;2024-01-30T10:46:38;97377.66;;;0.71;100.00
40650;BME280;26342;42.826;23.992;2024-01-30T10:49:04;97402.91;;;0.82;100.00
40650;BME280;26342;42.826;23.992;2024-01-30T10:51:31;97399.00;;;0.86;100.00
40650;BME280;26342;42.826;23.992;2024-01-30T10:53:57;97372.88;;;0.84;100.00
40650;BME280;26342;42.826;23.992;2024-01-30T10:56:24;97388.59;;;0.94;100.00
40650;BME280;26342;42.826;23.992;2024-01-30T10:58:54;97378.31;;;1.01;100.00
40650;BME280;26342;42.826;23.992;2024-01-30T11:01:21;97380.28;;;0.99;100.00
40650;BME280;26342;42.826;23.992;2024-01-30T11:03:54;97370.44;;;1.01;100.00
40650;BME280;26342;42.826;23.992;2024-01-30T11:06:26;97366.69;;;1.03;100.00
40650;BME280;26342;42.826;23.992;2024-01-30T11:09:02;97362.47;;;1.10;100.00
40650;BME280;26342;42.826;23.992;2024-01-30T11:11:51;97367.53;;;1.39;100.00
40650;BME280;26342;42.826;23.992;2024-01-30T11:14:23;97355.44;;;1.29;100.00
40650;BME280;26342;42.826;23.992;2024-01-30T11:16:49;97360.09;;;1.53;100.00
40650;BME280;26342;42.826;23.992;2024-01-30T11:19:14;97353.72;;;1.81;100.00
40650;BME280;26342;42.826;23.992;2024-01-30T11:21:41;97337.22;;;1.71;100.00
40650;BME280;26342;42.826;23.992;2024-01-30T11:24:07;97351.84;;;1.74;100.00
40650;BME280;26342;42.826;23.992;2024-01-30T11:26:33;97359.19;;;1.62;100.00
40650;BME280;26342;42.826;23.992;2024-01-30T11:29:03;97350.69;;;1.68;100.00
40650;BME280;26342;42.826;23.992;2024-01-30T11:31:29;97350.09;;;1.74;100.00
40650;BME280;26342;42.826;23.992;2024-01-30T11:33:56;97340.78;;;1.88;100.00
40650;BME280;26342;42.826;23.992;2024-01-30T11:36:26;97341.59;;;1.88;100.00
40650;BME280;26342;42.826;23.992;2024-01-30T11:38:54;97336.59;;;2.03;100.00
40650;BME280;26342;42.826;23.992;2024-01-30T11:41:20;97344.25;;;2.14;100.00
40650;BME280;26342;42.826;23.992;2024-01-30T11:43:54;97340.47;;;2.17;100.00
40650;BME280;26342;42.826;23.992;2024-01-30T11:46:20;97336.84;;;2.18;100.00
40650;BME280;26342;42.826;23.992;2024-01-30T11:48:45;97344.38;;;2.13;99.76
40650;BME280;26342;42.826;23.992;2024-01-30T11:51:13;97337.97;;;2.07;100.00
40650;BME280;26342;42.826;23.992;2024-01-30T11:53:39;97346.97;;;2.05;100.00
40650;BME280;26342;42.826;23.992;2024-01-30T11:56:06;97339.22;;;2.03;100.00
40650;BME280;26342;42.826;23.992;2024-01-30T11:58:33;97317.84;;;1.98;100.00
40650;BME280;26342;42.826;23.992;2024-01-30T12:00:59;97332.28;;;1.94;100.00
40650;BME280;26342;42.826;23.992;2024-01-30T12:03:25;97335.94;;;2.01;100.00
40650;BME280;26342;42.826;23.992;2024-01-30T12:05:57;97329.38;;;2.05;100.00
40650;BME280;26342;42.826;23.992;2024-01-30T12:08:23;97315.16;;;1.72;100.00
40650;BME280;26342;42.826;23.992;2024-01-30T12:10:58;97324.59;;;1.75;100.00
40650;BME280;26342;42.826;23.992;2024-01-30T12:13:25;97321.19;;;1.64;100.00
40650;BME280;26342;42.826;23.992;2024-01-30T12:15:51;97324.00;;;1.63;100.00
40650;BME280;26342;42.826;23.992;2024-01-30T12:18:19;97320.59;;;1.71;100.00
40650;BME280;26342;42.826;23.992;2024-01-30T12:20:45;97317.75;;;1.64;100.00
40650;BME280;26342;42.826;23.992;2024-01-30T12:23:12;97320.22;;;1.65;100.00
40650;BME280;26342;42.826;23.992;2024-01-30T12:25:38;97320.16;;;1.75;100.00
40650;BME280;26342;42.826;23.992;2024-01-30T12:28:03;97319.81;;;1.78;100.00
40650;BME280;26342;42.826;23.992;2024-01-30T12:30:29;97319.50;;;1.81;100.00
40650;BME280;26342;42.826;23.992;2024-01-30T12:32:55;97311.78;;;1.80;100.00
40650;BME280;26342;42.826;23.992;2024-01-30T12:35:21;97318.50;;;1.74;100.00
40650;BME280;26342;42.826;23.992;2024-01-30T12:37:47;97313.63;;;1.61;100.00
40650;BME280;26342;42.826;23.992;2024-01-30T12:40:14;97298.53;;;1.46;100.00